createdAt,value
2023-03-17T00:01:05.494Z,4.80
2023-03-17T00:04:11.940Z,4.70
2023-03-17T00:07:17.964Z,4.60
2023-03-17T00:10:25.233Z,4.60
2023-03-17T00:13:29.078Z,4.60
2023-03-17T00:16:37.515Z,4.50
2023-03-17T00:19:41.360Z,4.50
2023-03-17T00:22:45.532Z,4.40
2023-03-17T00:25:49.870Z,4.40
2023-03-17T00:28:53.158Z,4.30
2023-03-17T00:31:59.001Z,4.30
2023-03-17T00:35:05.218Z,4.30
2023-03-17T00:38:12.355Z,4.30
2023-03-17T00:41:16.097Z,4.30
2023-03-17T00:44:20.301Z,4.30
2023-03-17T00:47:24.967Z,4.20
2023-03-17T00:50:29.939Z,4.20
2023-03-17T00:53:33.263Z,4.20
2023-03-17T00:56:37.535Z,4.20
2023-03-17T00:59:43.347Z,4.20
2023-03-17T01:02:48.834Z,4.20
2023-03-17T01:05:54.179Z,4.10
2023-03-17T01:08:57.605Z,4.10
2023-03-17T01:12:01.615Z,4.10
2023-03-17T01:15:05.076Z,4.00
2023-03-17T01:18:13.224Z,4.00
2023-03-17T01:21:16.690Z,3.90
2023-03-17T01:24:19.862Z,3.90
2023-03-17T01:27:23.097Z,3.90
2023-03-17T01:30:29.490Z,3.80
2023-03-17T01:33:35.204Z,3.90
2023-03-17T01:36:38.415Z,3.80
2023-03-17T01:39:41.961Z,3.80
2023-03-17T01:42:49.259Z,3.70
2023-03-17T01:46:27.587Z,3.60
2023-03-17T01:49:35.510Z,3.60
2023-03-17T01:52:41.564Z,3.60
2023-03-17T01:55:47.145Z,3.60
2023-03-17T01:58:53.556Z,3.60
2023-03-17T02:02:02.314Z,3.50
2023-03-17T02:05:09.394Z,3.50
2023-03-17T02:08:14.757Z,3.50
2023-03-17T02:11:17.915Z,3.50
2023-03-17T02:14:21.139Z,3.50
2023-03-17T02:17:26.426Z,3.50
2023-03-17T02:21:15.478Z,3.40
2023-03-17T02:24:32.026Z,3.40
2023-03-17T02:27:39.507Z,3.30
2023-03-17T02:30:43.170Z,3.30
2023-03-17T02:33:46.412Z,3.30
2023-03-17T02:36:49.628Z,3.30
2023-03-17T02:39:54.823Z,3.30
2023-03-17T02:42:59.437Z,3.40
2023-03-17T02:46:02.800Z,3.30
2023-03-17T02:49:06.614Z,3.30
2023-03-17T02:52:10.221Z,3.30
2023-03-17T02:55:14.857Z,3.30
2023-03-17T02:58:18.040Z,3.30
2023-03-17T03:01:21.354Z,3.30
2023-03-17T03:04:26.188Z,3.30
2023-03-17T03:07:29.443Z,3.30
2023-03-17T03:10:34.008Z,3.30
2023-03-17T03:13:37.694Z,3.30
2023-03-17T03:16:41.108Z,3.30
2023-03-17T03:19:45.003Z,3.30
2023-03-17T03:22:48.455Z,3.30
2023-03-17T03:25:53.082Z,3.30
2023-03-17T03:28:57.401Z,3.30
2023-03-17T03:32:00.852Z,3.20
2023-03-17T03:35:04.467Z,3.20
2023-03-17T03:38:07.733Z,3.20
2023-03-17T03:41:13.133Z,3.10
2023-03-17T03:44:16.372Z,3.10
2023-03-17T03:47:19.530Z,3.00
2023-03-17T03:50:24.088Z,3.00
2023-03-17T03:53:28.019Z,3.10
2023-03-17T03:56:32.673Z,3.10
2023-03-17T03:59:35.798Z,3.00
2023-03-17T04:02:39.021Z,3.00
2023-03-17T04:05:42.241Z,3.00
2023-03-17T04:08:45.878Z,2.90
2023-03-17T04:11:50.473Z,2.90
2023-03-17T04:14:53.869Z,2.90
2023-03-17T04:17:57.106Z,2.90
2023-03-17T04:21:00.616Z,2.90
2023-03-17T04:24:05.197Z,2.90
2023-03-17T04:27:10.499Z,2.90
2023-03-17T04:30:16.879Z,2.80
2023-03-17T04:33:20.395Z,2.90
2023-03-17T04:36:25.158Z,2.80
2023-03-17T04:39:29.125Z,2.80
2023-03-17T04:42:33.655Z,2.80
2023-03-17T04:45:37.718Z,2.80
2023-03-17T04:48:41.445Z,2.80
2023-03-17T04:51:44.663Z,2.80
2023-03-17T04:54:47.961Z,2.80
2023-03-17T04:57:52.515Z,2.70
2023-03-17T05:00:55.831Z,2.70
2023-03-17T05:03:59.175Z,2.70
2023-03-17T05:07:02.995Z,2.70
2023-03-17T05:10:06.971Z,2.70
2023-03-17T05:13:11.524Z,2.70
2023-03-17T05:16:14.949Z,2.70
2023-03-17T05:19:18.493Z,2.60
2023-03-17T05:22:21.719Z,2.70
2023-03-17T05:25:24.903Z,2.60
2023-03-17T05:28:29.713Z,2.60
2023-03-17T05:31:33.051Z,2.70
2023-03-17T05:34:36.290Z,2.70
2023-03-17T05:37:39.561Z,2.70
2023-03-17T05:40:43.484Z,2.80
2023-03-17T05:43:48.065Z,2.80
2023-03-17T05:46:51.347Z,2.80
2023-03-17T05:49:54.530Z,2.80
2023-03-17T05:52:57.820Z,2.80
2023-03-17T05:56:01.023Z,2.90
2023-03-17T05:59:05.815Z,2.90
2023-03-17T06:02:09.159Z,3.00
2023-03-17T06:05:12.407Z,3.10
2023-03-17T06:08:15.971Z,3.20
2023-03-17T06:11:20.717Z,3.30
2023-03-17T06:14:27.058Z,3.30
2023-03-17T06:17:30.381Z,3.50
2023-03-17T06:20:33.902Z,3.50
2023-03-17T06:23:37.285Z,3.60
2023-03-17T06:26:40.459Z,3.70
2023-03-17T06:29:45.031Z,3.80
2023-03-17T06:32:48.293Z,3.90
2023-03-17T06:35:51.785Z,4.00
2023-03-17T06:38:55.318Z,4.10
2023-03-17T06:41:58.535Z,4.20
2023-03-17T06:45:03.778Z,4.40
2023-03-17T06:48:07.930Z,4.70
2023-03-17T06:51:11.161Z,5.00
2023-03-17T06:54:14.354Z,5.30
2023-03-17T06:57:17.704Z,5.50
2023-03-17T07:00:23.898Z,5.80
2023-03-17T07:03:28.074Z,6.20
2023-03-17T07:06:31.281Z,6.50
2023-03-17T07:09:35.493Z,6.90
2023-03-17T07:12:38.739Z,7.40
2023-03-17T07:15:45.653Z,7.90
2023-03-17T07:18:48.916Z,8.70
2023-03-17T07:21:52.172Z,9.90
2023-03-17T07:24:55.369Z,10.90
2023-03-17T07:27:58.599Z,11.70
2023-03-17T07:31:03.760Z,12.20
2023-03-17T07:34:07.718Z,12.60
2023-03-17T07:37:12.251Z,12.90
2023-03-17T07:40:16.766Z,13.00
2023-03-17T07:43:20.110Z,13.20
2023-03-17T07:46:24.833Z,13.30
2023-03-17T07:49:40.826Z,13.20
2023-03-17T07:52:45.125Z,12.90
2023-03-17T07:55:48.376Z,12.80
2023-03-17T07:58:51.882Z,12.50
2023-03-17T08:01:58.157Z,12.40
2023-03-17T08:05:02.028Z,12.00
2023-03-17T08:08:06.785Z,11.70
2023-03-17T08:11:10.757Z,11.30
2023-03-17T08:14:13.958Z,11.00
2023-03-17T08:17:19.119Z,11.10
2023-03-17T08:20:22.442Z,10.90
2023-03-17T08:23:26.658Z,11.30
2023-03-17T08:26:30.178Z,11.70
2023-03-17T08:29:33.651Z,12.00
2023-03-17T08:32:38.446Z,12.80
2023-03-17T08:35:42.225Z,13.00
2023-03-17T08:38:46.233Z,13.20
2023-03-17T08:41:49.508Z,13.70
2023-03-17T08:44:52.694Z,15.00
2023-03-17T08:47:57.821Z,17.00
2023-03-17T08:51:01.137Z,19.60
2023-03-17T08:54:05.871Z,21.20
2023-03-17T08:57:09.125Z,22.30
2023-03-17T09:00:13.974Z,24.00
2023-03-17T09:03:18.589Z,26.30
2023-03-17T09:06:22.479Z,25.60
2023-03-17T09:09:25.659Z,26.60
2023-03-17T09:12:28.994Z,27.50
2023-03-17T09:15:34.196Z,28.60
2023-03-17T09:18:39.117Z,29.50
2023-03-17T09:21:42.313Z,30.80
2023-03-17T09:24:46.067Z,30.90
2023-03-17T09:27:49.359Z,31.40
2023-03-17T09:30:53.047Z,32.70
2023-03-17T09:33:57.690Z,32.80
2023-03-17T09:37:01.018Z,33.80
2023-03-17T09:40:08.462Z,34.90
2023-03-17T09:43:25.124Z,35.30
2023-03-17T09:46:40.843Z,36.10
2023-03-17T09:49:49.170Z,37.00
2023-03-17T09:52:53.340Z,36.10
2023-03-17T09:55:59.891Z,36.10
2023-03-17T09:59:08.718Z,35.30
2023-03-17T10:02:20.351Z,35.10
2023-03-17T10:05:27.793Z,34.60
2023-03-17T10:08:35.025Z,33.20
2023-03-17T10:11:42.319Z,34.20
2023-03-17T10:14:57.877Z,34.20
2023-03-17T10:18:02.557Z,33.50
2023-03-17T10:21:12.808Z,32.90
2023-03-17T10:24:16.342Z,33.40
2023-03-17T10:27:20.118Z,32.30
2023-03-17T10:30:24.649Z,31.30
2023-03-17T10:33:27.903Z,30.60
2023-03-17T10:36:38.001Z,29.50
2023-03-17T10:39:46.913Z,27.50
2023-03-17T10:42:53.672Z,27.40
2023-03-17T10:46:00.974Z,30.00
2023-03-17T10:49:09.430Z,31.50
2023-03-17T10:52:21.119Z,33.90
2023-03-17T10:55:28.078Z,35.90
2023-03-17T10:58:38.671Z,36.10
2023-03-17T11:01:45.615Z,37.50
2023-03-17T11:04:49.260Z,38.20
2023-03-17T11:07:59.118Z,36.90
2023-03-17T11:11:05.578Z,32.80
2023-03-17T11:14:13.457Z,34.00
2023-03-17T11:17:20.277Z,34.80
2023-03-17T11:20:37.410Z,33.80
2023-03-17T11:23:52.249Z,35.60
2023-03-17T11:27:01.759Z,35.50
2023-03-17T11:30:18.675Z,33.90
2023-03-17T11:33:34.810Z,34.50
2023-03-17T11:36:50.525Z,35.10
2023-03-17T11:40:04.296Z,35.50
2023-03-17T11:43:27.522Z,35.50
2023-03-17T11:46:37.025Z,34.20
2023-03-17T11:49:41.842Z,33.60
2023-03-17T11:53:00.101Z,33.20
2023-03-17T11:56:10.902Z,32.70
2023-03-17T11:59:31.518Z,32.20
2023-03-17T12:02:42.617Z,34.00
2023-03-17T12:05:50.868Z,34.90
2023-03-17T12:08:59.778Z,34.80
2023-03-17T12:12:05.507Z,34.00
2023-03-17T12:15:21.148Z,33.40
2023-03-17T12:18:30.727Z,35.60
2023-03-17T12:21:38.989Z,36.80
2023-03-17T12:24:48.708Z,36.80
2023-03-17T12:28:00.347Z,37.40
2023-03-17T12:31:07.004Z,35.10
2023-03-17T12:34:16.577Z,36.10
2023-03-17T12:37:21.469Z,33.30
2023-03-17T12:40:29.640Z,34.40
2023-03-17T12:43:50.174Z,33.90
2023-03-17T12:47:29.982Z,35.50
2023-03-17T12:51:06.431Z,35.60
2023-03-17T12:54:16.470Z,35.00
2023-03-17T12:57:22.284Z,36.20
2023-03-17T13:00:29.716Z,35.30
2023-03-17T13:03:37.093Z,35.00
2023-03-17T13:06:45.058Z,35.60
2023-03-17T13:09:50.835Z,37.20
2023-03-17T13:13:05.812Z,37.80
2023-03-17T13:16:28.989Z,38.30
2023-03-17T13:19:33.806Z,37.90
2023-03-17T13:22:39.133Z,38.90
2023-03-17T13:25:53.599Z,39.40
2023-03-17T13:29:03.592Z,39.40
2023-03-17T13:32:38.177Z,39.10
2023-03-17T13:35:44.210Z,37.90
2023-03-17T13:39:19.812Z,37.30
2023-03-17T13:42:35.699Z,35.60
2023-03-17T13:45:40.178Z,32.80
2023-03-17T13:48:44.960Z,29.30
2023-03-17T13:51:59.549Z,26.80
2023-03-17T13:55:25.725Z,24.80
2023-03-17T13:58:36.112Z,22.30
2023-03-17T14:01:44.034Z,20.30
2023-03-17T14:04:53.574Z,19.00
2023-03-17T14:08:00.095Z,18.40
2023-03-17T14:11:07.446Z,18.10
2023-03-17T14:14:32.564Z,17.90
2023-03-17T14:17:42.698Z,17.80
2023-03-17T14:20:56.493Z,17.50
2023-03-17T14:24:01.708Z,16.90
2023-03-17T14:27:08.997Z,16.80
2023-03-17T14:30:20.562Z,16.50
2023-03-17T14:33:26.610Z,16.50
2023-03-17T14:36:34.854Z,16.30
2023-03-17T14:39:46.007Z,16.10
2023-03-17T14:42:49.309Z,16.10
2023-03-17T14:45:53.868Z,16.10
2023-03-17T14:49:01.605Z,16.10
2023-03-17T14:52:06.711Z,15.80
2023-03-17T14:55:14.919Z,15.70
2023-03-17T14:58:25.407Z,15.60
2023-03-17T15:01:37.652Z,15.60
2023-03-17T15:04:52.443Z,15.50
2023-03-17T15:07:57.428Z,15.30
2023-03-17T15:11:02.072Z,15.00
2023-03-17T15:14:12.833Z,14.90
2023-03-17T15:17:19.284Z,15.00
2023-03-17T15:20:23.048Z,15.00
2023-03-17T15:23:30.833Z,15.00
2023-03-17T15:26:34.064Z,15.00
2023-03-17T15:29:37.269Z,15.10
2023-03-17T15:32:41.337Z,15.20
2023-03-17T15:35:44.566Z,15.10
2023-03-17T15:38:49.280Z,15.10
2023-03-17T15:41:52.516Z,15.10
2023-03-17T15:44:56.356Z,15.10
2023-03-17T15:47:59.609Z,14.80
2023-03-17T15:51:03.459Z,14.70
2023-03-17T15:54:08.119Z,14.60
2023-03-17T15:57:13.172Z,14.60
2023-03-17T16:00:18.481Z,14.40
2023-03-17T16:03:29.379Z,14.30
2023-03-17T16:06:32.589Z,14.30
2023-03-17T16:09:37.434Z,14.30
2023-03-17T16:12:40.611Z,14.20
2023-03-17T16:15:45.337Z,14.10
2023-03-17T16:18:51.073Z,14.00
2023-03-17T16:21:55.345Z,13.90
2023-03-17T16:24:59.971Z,13.70
2023-03-17T16:28:09.176Z,13.60
2023-03-17T16:31:21.830Z,13.60
2023-03-17T16:34:25.670Z,13.40
2023-03-17T16:37:28.950Z,13.10
2023-03-17T16:40:38.312Z,13.10
2023-03-17T16:43:44.865Z,13.00
2023-03-17T16:46:49.067Z,13.00
2023-03-17T16:49:52.281Z,13.00
2023-03-17T16:52:56.045Z,13.00
2023-03-17T16:56:01.050Z,12.90
2023-03-17T16:59:05.222Z,12.80
2023-03-17T17:02:17.368Z,12.80
2023-03-17T17:05:23.440Z,12.70
2023-03-17T17:08:26.839Z,12.50
2023-03-17T17:11:32.164Z,12.40
2023-03-17T17:14:36.288Z,12.40
2023-03-17T17:17:42.485Z,12.30
2023-03-17T17:20:48.070Z,12.10
2023-03-17T17:23:53.160Z,12.00
2023-03-17T17:26:58.506Z,12.00
2023-03-17T17:30:02.349Z,11.90
2023-03-17T17:33:07.165Z,11.90
2023-03-17T17:36:16.253Z,11.90
2023-03-17T17:39:20.563Z,11.90
2023-03-17T17:42:26.366Z,11.90
2023-03-17T17:45:33.137Z,11.80
2023-03-17T17:48:37.566Z,11.90
2023-03-17T17:51:42.269Z,11.80
2023-03-17T17:54:47.183Z,11.80
2023-03-17T17:57:55.061Z,11.80
2023-03-17T18:00:59.927Z,11.80
2023-03-17T18:04:03.982Z,11.70
2023-03-17T18:07:08.403Z,11.60
2023-03-17T18:10:18.255Z,11.60
2023-03-17T18:13:25.380Z,11.60
2023-03-17T18:16:30.069Z,11.50
2023-03-17T18:19:36.428Z,11.40
2023-03-17T18:22:41.323Z,11.40
2023-03-17T18:25:45.558Z,11.30
2023-03-17T18:28:54.429Z,11.20
2023-03-17T18:31:59.446Z,11.20
2023-03-17T18:35:07.374Z,11.10
2023-03-17T18:38:12.023Z,11.10
2023-03-17T18:41:18.481Z,11.00
2023-03-17T18:44:25.662Z,10.90
2023-03-17T18:47:30.214Z,10.90
2023-03-17T18:50:34.923Z,10.90
2023-03-17T18:53:40.837Z,10.80
2023-03-17T18:56:45.931Z,10.80
2023-03-17T18:59:51.791Z,10.70
2023-03-17T19:02:56.591Z,10.50
2023-03-17T19:06:10.373Z,10.40
2023-03-17T19:09:15.124Z,10.30
2023-03-17T19:12:19.901Z,10.30
2023-03-17T19:15:26.660Z,10.30
2023-03-17T19:18:31.634Z,10.10
2023-03-17T19:21:36.169Z,10.10
2023-03-17T19:24:41.709Z,10.10
2023-03-17T19:27:46.448Z,10.00
2023-03-17T19:30:52.848Z,9.90
2023-03-17T19:34:00.321Z,9.90
2023-03-17T19:37:05.676Z,9.90
2023-03-17T19:40:13.961Z,9.80
2023-03-17T19:43:36.768Z,9.70
2023-03-17T19:46:45.384Z,9.70
2023-03-17T19:49:49.908Z,9.60
2023-03-17T19:52:54.558Z,9.50
2023-03-17T19:56:02.242Z,9.50
2023-03-17T19:59:08.359Z,9.40
2023-03-17T20:02:17.201Z,9.40
2023-03-17T20:05:21.648Z,9.30
2023-03-17T20:08:26.924Z,9.30
2023-03-17T20:11:34.192Z,9.20
2023-03-17T20:14:38.325Z,9.20
2023-03-17T20:17:44.368Z,9.20
2023-03-17T20:21:04.539Z,9.10
2023-03-17T20:24:13.475Z,9.10
2023-03-17T20:27:18.696Z,9.00
2023-03-17T20:30:23.900Z,9.00
2023-03-17T20:33:29.937Z,8.90
2023-03-17T20:36:35.331Z,8.90
2023-03-17T20:39:41.407Z,8.80
2023-03-17T20:42:46.638Z,8.70
2023-03-17T20:45:53.605Z,8.70
2023-03-17T20:49:01.750Z,8.70
2023-03-17T20:52:12.075Z,8.70
2023-03-17T20:55:17.550Z,8.60
2023-03-17T20:58:21.965Z,8.60
2023-03-17T21:01:27.267Z,8.60
2023-03-17T21:04:33.405Z,8.60
2023-03-17T21:07:37.780Z,8.60
2023-03-17T21:10:43.103Z,8.50
2023-03-17T21:13:47.974Z,8.40
2023-03-17T21:16:53.291Z,8.40
2023-03-17T21:19:58.485Z,8.40
2023-03-17T21:23:04.660Z,8.30
2023-03-17T21:26:09.776Z,8.30
2023-03-17T21:29:13.762Z,8.30
2023-03-17T21:32:17.872Z,8.20
2023-03-17T21:35:25.022Z,8.20
2023-03-17T21:38:29.717Z,8.10
2023-03-17T21:41:36.777Z,8.10
2023-03-17T21:44:40.565Z,8.00
2023-03-17T21:47:44.154Z,8.00
2023-03-17T21:50:50.071Z,8.00
2023-03-17T21:53:54.268Z,7.90
2023-03-17T21:56:58.560Z,7.80
2023-03-17T22:00:02.144Z,7.70
2023-03-17T22:03:06.231Z,7.70
2023-03-17T22:06:11.649Z,7.70
2023-03-17T22:09:16.507Z,7.60
2023-03-17T22:12:22.063Z,7.50
2023-03-17T22:15:25.447Z,7.40
2023-03-17T22:18:28.773Z,7.40
2023-03-17T22:21:33.905Z,7.30
2023-03-17T22:24:38.082Z,7.30
2023-03-17T22:27:41.301Z,7.30
2023-03-17T22:30:44.669Z,7.20
2023-03-17T22:33:48.872Z,7.20
2023-03-17T22:36:53.469Z,7.20
2023-03-17T22:40:02.297Z,7.10
2023-03-17T22:43:05.648Z,7.10
2023-03-17T22:46:09.338Z,7.00
2023-03-17T22:49:12.993Z,7.10
2023-03-17T22:52:17.572Z,7.00
2023-03-17T22:55:20.865Z,7.00
2023-03-17T22:58:24.068Z,6.90
2023-03-17T23:01:27.406Z,6.90
2023-03-17T23:04:30.651Z,6.90
2023-03-17T23:07:47.791Z,6.90
2023-03-17T23:10:53.624Z,6.80
2023-03-17T23:13:56.918Z,6.80
2023-03-17T23:17:00.164Z,6.80
2023-03-17T23:20:05.558Z,6.70
2023-03-17T23:23:11.561Z,6.60
2023-03-17T23:26:14.751Z,6.60
2023-03-17T23:29:18.066Z,6.50
2023-03-17T23:32:21.208Z,6.50
2023-03-17T23:35:25.261Z,6.40
2023-03-17T23:38:29.866Z,6.30
2023-03-17T23:41:33.209Z,6.20
2023-03-17T23:44:36.420Z,6.20
2023-03-17T23:47:40.084Z,6.20
2023-03-17T23:50:44.188Z,6.20
2023-03-17T23:53:49.241Z,6.20
2023-03-17T23:56:52.683Z,6.10
2023-03-17T23:59:57.204Z,6.10
